Time;durP1;ratioP1;P1;durP2;ratioP2;P2;SDS_P1;SDS_P2;PMS_P1;PMS_P2;Temp;Humidity;BMP_temperature;BMP_pressure;BME280_temperature;BME280_humidity;BME280_pressure;Samples;Min_cycle;Max_cycle;Signal;HPM_P1;HPM_P2
2022/05/15 00:00:58;;;;;;;9.80;7.00;;;11.50;99.90;;;;;;5035693;28;20871;-68
2022/05/15 00:03:46;;;;;;;14.37;8.60;;;11.40;99.90;;;;;;5026269;28;20471;-68
2022/05/15 00:06:34;;;;;;;9.30;7.10;;;11.40;99.90;;;;;;5030832;28;20562;-67
2022/05/15 00:09:22;;;;;;;8.80;6.87;;;11.40;99.90;;;;;;5028971;28;20517;-68
2022/05/15 00:12:11;;;;;;;10.57;7.10;;;11.40;99.90;;;;;;5030392;28;20481;-68
2022/05/15 00:14:59;;;;;;;11.90;6.83;;;11.30;99.90;;;;;;5032784;28;20546;-67
2022/05/15 00:17:49;;;;;;;11.53;7.00;;;11.30;99.90;;;;;;5031009;28;20554;-68
2022/05/15 00:20:39;;;;;;;10.27;7.00;;;11.30;99.90;;;;;;5033381;28;21004;-68
2022/05/15 00:23:27;;;;;;;9.80;7.00;;;11.30;99.90;;;;;;5030890;28;20474;-68
2022/05/15 00:26:15;;;;;;;11.80;7.70;;;11.20;99.90;;;;;;5032245;28;20996;-67
2022/05/15 00:29:03;;;;;;;8.83;7.30;;;11.20;99.90;;;;;;5033680;28;20459;-68
2022/05/15 00:31:52;;;;;;;15.53;7.70;;;11.20;99.90;;;;;;5028882;28;20545;-67
2022/05/15 00:34:41;;;;;;;11.70;7.57;;;11.10;99.90;;;;;;5029652;28;20452;-67
2022/05/15 00:37:29;;;;;;;12.27;7.50;;;11.10;99.90;;;;;;5031273;28;20533;-68
2022/05/15 00:40:20;;;;;;;9.07;7.30;;;11.10;99.90;;;;;;5023142;28;20583;-68
2022/05/15 00:43:10;;;;;;;10.33;7.63;;;11.00;99.90;;;;;;5035775;28;20850;-67
2022/05/15 00:45:59;;;;;;;10.17;7.30;;;10.90;99.90;;;;;;5031288;28;20482;-67
2022/05/15 00:48:48;;;;;;;14.23;7.63;;;10.80;99.90;;;;;;5032885;28;20457;-68
2022/05/15 00:51:42;;;;;;;11.23;7.70;;;10.80;99.90;;;;;;5028598;28;20546;-67
2022/05/15 00:54:36;;;;;;;10.20;7.03;;;10.80;99.90;;;;;;5030080;28;20616;-68
2022/05/15 00:57:29;;;;;;;10.40;7.57;;;10.70;99.90;;;;;;5029534;28;20943;-67
2022/05/15 01:00:20;;;;;;;9.93;7.23;;;10.80;99.90;;;;;;5027388;28;20590;-68
2022/05/15 01:03:11;;;;;;;10.83;7.40;;;10.70;99.90;;;;;;5028881;28;22227;-67
2022/05/15 01:05:59;;;;;;;12.53;7.67;;;10.70;99.90;;;;;;5030310;28;21131;-67
2022/05/15 01:08:49;;;;;;;11.73;7.43;;;10.70;99.90;;;;;;5035819;28;20490;-67
2022/05/15 01:11:39;;;;;;;11.67;7.40;;;10.60;99.90;;;;;;5028643;28;20962;-67
2022/05/15 01:14:28;;;;;;;8.70;6.97;;;10.60;99.90;;;;;;5030976;28;20479;-68
2022/05/15 01:17:16;;;;;;;14.23;8.10;;;10.60;99.90;;;;;;5033047;28;20512;-68
2022/05/15 01:20:07;;;;;;;12.17;7.83;;;10.50;99.90;;;;;;5030067;28;20559;-68
2022/05/15 01:22:57;;;;;;;10.03;7.57;;;10.50;99.90;;;;;;5033223;28;21245;-68
2022/05/15 01:25:46;;;;;;;9.13;7.00;;;10.40;99.90;;;;;;5030724;28;20925;-68
2022/05/15 01:28:34;;;;;;;8.80;7.10;;;10.40;99.90;;;;;;5028737;28;20459;-68
2022/05/15 01:31:23;;;;;;;9.73;7.23;;;10.30;99.90;;;;;;5024494;28;20443;-68
2022/05/15 01:34:12;;;;;;;9.30;7.47;;;10.30;99.90;;;;;;5027883;28;20482;-68
2022/05/15 01:37:00;;;;;;;10.77;8.10;;;10.30;99.90;;;;;;5035165;28;20981;-68
2022/05/15 01:39:50;;;;;;;10.70;7.80;;;10.30;99.90;;;;;;5030425;28;20511;-68
2022/05/15 01:42:38;;;;;;;11.07;7.10;;;10.30;99.90;;;;;;5026626;28;20545;-68
2022/05/15 01:45:27;;;;;;;12.33;7.30;;;10.30;99.90;;;;;;5034278;28;20491;-68
2022/05/15 01:48:15;;;;;;;7.67;6.80;;;10.20;99.90;;;;;;5028912;28;20490;-68
2022/05/15 01:51:04;;;;;;;10.13;7.50;;;10.20;99.90;;;;;;5026457;28;20483;-68
2022/05/15 01:53:52;;;;;;;12.27;7.67;;;10.10;99.90;;;;;;5031634;28;20585;-68
2022/05/15 01:56:43;;;;;;;8.20;7.20;;;10.10;99.90;;;;;;5029264;28;21082;-68
2022/05/15 01:59:32;;;;;;;9.40;6.83;;;10.10;99.90;;;;;;5029648;28;20982;-67
2022/05/15 02:02:20;;;;;;;8.73;7.50;;;10.10;99.90;;;;;;5028314;28;20475;-68
2022/05/15 02:05:09;;;;;;;10.17;6.90;;;10.00;99.90;;;;;;5029771;28;20473;-68
2022/05/15 02:07:57;;;;;;;11.13;7.57;;;10.00;99.90;;;;;;5034741;28;20672;-68
2022/05/15 02:10:45;;;;;;;10.17;7.43;;;10.00;99.90;;;;;;5029878;28;20486;-68
2022/05/15 02:13:35;;;;;;;11.70;7.43;;;10.00;99.90;;;;;;5031036;28;20549;-68
2022/05/15 02:16:23;;;;;;;12.37;7.67;;;9.90;99.90;;;;;;5031433;28;20626;-68
2022/05/15 02:19:12;;;;;;;9.63;7.47;;;10.00;99.90;;;;;;5031896;28;20482;-68
2022/05/15 02:22:00;;;;;;;10.37;7.77;;;9.90;99.90;;;;;;5034590;28;20607;-68
2022/05/15 02:24:48;;;;;;;10.77;7.70;;;9.90;99.90;;;;;;5033821;28;20462;-68
2022/05/15 02:27:37;;;;;;;12.20;8.00;;;9.80;99.90;;;;;;5034181;28;20478;-68
2022/05/15 02:30:27;;;;;;;9.67;7.70;;;9.80;99.90;;;;;;5033433;28;20546;-68
2022/05/15 02:33:15;;;;;;;12.97;8.20;;;9.70;99.90;;;;;;5035884;28;20505;-68
2022/05/15 02:36:04;;;;;;;11.03;7.77;;;9.60;99.90;;;;;;5038313;28;20471;-68
2022/05/15 02:38:52;;;;;;;10.40;7.70;;;9.60;99.90;;;;;;5035962;28;20490;-68
2022/05/15 02:41:40;;;;;;;13.23;7.80;;;9.50;99.90;;;;;;5036859;28;20646;-68
2022/05/15 02:44:29;;;;;;;14.20;8.00;;;9.60;99.90;;;;;;5038675;28;20537;-68
2022/05/15 02:47:18;;;;;;;9.83;7.43;;;9.60;99.90;;;;;;5035014;28;20573;-68
2022/05/15 02:53:18;;;;;;;11.63;7.63;;;9.60;99.90;;;;;;5030018;28;20845;-68
2022/05/15 02:56:11;;;;;;;10.20;7.67;;;9.60;99.90;;;;;;5035171;28;20554;-68
2022/05/15 02:58:59;;;;;;;9.67;7.20;;;9.50;99.90;;;;;;5035411;28;20546;-68
2022/05/15 03:01:47;;;;;;;10.80;8.30;;;9.50;99.90;;;;;;5031280;28;20550;-68
2022/05/15 03:04:37;;;;;;;10.83;8.17;;;9.40;99.90;;;;;;5036004;28;20565;-68
2022/05/15 03:07:25;;;;;;;12.33;8.20;;;9.30;99.90;;;;;;5033431;28;20522;-68
2022/05/15 03:10:17;;;;;;;8.57;7.40;;;9.30;99.90;;;;;;5035454;28;20451;-68
2022/05/15 03:13:06;;;;;;;11.50;8.23;;;9.30;99.90;;;;;;5036802;28;20869;-67
2022/05/15 03:15:55;;;;;;;10.57;8.30;;;9.30;99.90;;;;;;5032952;28;20570;-68
2022/05/15 03:18:45;;;;;;;11.33;7.37;;;9.30;99.90;;;;;;5032821;28;20459;-68
2022/05/15 03:21:35;;;;;;;9.67;7.87;;;9.20;99.90;;;;;;5033800;28;20606;-68
2022/05/15 03:24:23;;;;;;;11.53;7.50;;;9.20;99.90;;;;;;5030831;28;20457;-68
2022/05/15 03:27:11;;;;;;;13.57;8.67;;;9.10;99.90;;;;;;5030449;28;20525;-68
2022/05/15 03:29:59;;;;;;;11.53;8.13;;;9.10;99.90;;;;;;5036445;28;20454;-68
2022/05/15 03:32:47;;;;;;;11.67;7.83;;;9.10;99.90;;;;;;5027788;28;20565;-68
2022/05/15 03:35:35;;;;;;;8.90;7.50;;;9.10;99.90;;;;;;5031273;28;20518;-67
2022/05/15 03:38:25;;;;;;;11.93;8.30;;;9.10;99.90;;;;;;5035017;28;20490;-68
2022/05/15 03:41:15;;;;;;;10.87;8.40;;;9.10;99.90;;;;;;5029928;28;20522;-68
2022/05/15 03:44:04;;;;;;;10.10;7.77;;;9.10;99.90;;;;;;5032287;28;20676;-68
2022/05/15 03:46:52;;;;;;;13.07;8.03;;;9.10;99.90;;;;;;5028050;28;20491;-68
2022/05/15 03:49:40;;;;;;;9.60;7.30;;;9.10;99.90;;;;;;5014962;28;20560;-69
2022/05/15 03:52:28;;;;;;;10.40;8.10;;;9.10;99.90;;;;;;5024387;28;20495;-68
2022/05/15 03:55:18;;;;;;;13.00;9.00;;;9.10;99.90;;;;;;5024949;28;20471;-68
2022/05/15 03:58:06;;;;;;;13.07;8.77;;;9.10;99.90;;;;;;5036172;28;21218;-68
2022/05/15 04:00:55;;;;;;;12.07;8.47;;;9.10;99.90;;;;;;5029908;28;20480;-68
2022/05/15 04:03:43;;;;;;;12.37;8.70;;;9.10;99.90;;;;;;5021353;28;20492;-68
2022/05/15 04:06:32;;;;;;;13.30;9.40;;;9.00;99.90;;;;;;5031120;28;20471;-68
2022/05/15 04:09:21;;;;;;;20.73;9.83;;;9.10;99.90;;;;;;5030069;28;20605;-68
2022/05/15 04:12:13;;;;;;;18.57;10.67;;;9.10;99.90;;;;;;5028863;28;20486;-68
2022/05/15 04:15:01;;;;;;;20.57;11.17;;;9.00;99.90;;;;;;5036977;28;20542;-68
2022/05/15 04:17:51;;;;;;;20.53;11.03;;;9.10;99.90;;;;;;5033151;28;20470;-68
2022/05/15 04:20:39;;;;;;;24.67;12.13;;;9.10;99.90;;;;;;5030472;28;20562;-68
2022/05/15 04:23:28;;;;;;;22.17;12.27;;;9.10;99.90;;;;;;5029988;28;20521;-68
2022/05/15 04:26:17;;;;;;;20.60;11.77;;;9.20;99.90;;;;;;5031653;28;20474;-68
2022/05/15 04:29:07;;;;;;;21.10;12.20;;;9.20;99.90;;;;;;5033328;28;20529;-68
2022/05/15 04:31:56;;;;;;;17.67;11.50;;;9.20;99.90;;;;;;5030422;28;20602;-68
2022/05/15 04:34:45;;;;;;;16.83;12.20;;;9.20;99.90;;;;;;5032265;28;21085;-68
2022/05/15 04:37:34;;;;;;;17.57;11.23;;;9.20;99.90;;;;;;5036138;28;20550;-68
2022/05/15 04:40:23;;;;;;;18.90;12.67;;;9.20;99.90;;;;;;5030910;28;21047;-68
2022/05/15 04:43:11;;;;;;;13.13;10.83;;;9.30;99.90;;;;;;5035902;28;20513;-68
2022/05/15 04:46:03;;;;;;;16.83;12.57;;;9.30;99.90;;;;;;5033764;28;21091;-68
2022/05/15 04:48:51;;;;;;;19.10;11.90;;;9.30;99.90;;;;;;5034558;28;20472;-68
2022/05/15 04:51:39;;;;;;;14.30;11.57;;;9.30;99.90;;;;;;5031597;28;20502;-67
2022/05/15 04:54:27;;;;;;;14.00;10.60;;;9.30;99.90;;;;;;5030251;28;20599;-68
2022/05/15 04:57:15;;;;;;;15.33;11.60;;;9.30;99.90;;;;;;5028575;28;20462;-68
2022/05/15 05:00:05;;;;;;;13.00;11.60;;;9.30;99.90;;;;;;5035789;28;20566;-68
2022/05/15 05:02:55;;;;;;;12.13;10.40;;;9.40;99.90;;;;;;5034895;28;21134;-68
2022/05/15 05:05:43;;;;;;;14.17;10.90;;;9.40;99.90;;;;;;5032295;28;20558;-68
2022/05/15 05:08:32;;;;;;;12.17;10.87;;;9.40;99.90;;;;;;5031407;28;20703;-68
2022/05/15 05:11:20;;;;;;;11.67;10.47;;;9.40;99.90;;;;;;5028245;28;20587;-68
2022/05/15 05:14:08;;;;;;;11.97;10.67;;;9.40;99.90;;;;;;5032806;28;20741;-68
2022/05/15 05:16:57;;;;;;;12.30;10.97;;;9.50;99.90;;;;;;5028048;28;20645;-68
2022/05/15 05:19:46;;;;;;;15.53;11.73;;;9.50;99.90;;;;;;5020097;28;20579;-68
2022/05/15 05:22:34;;;;;;;12.43;11.13;;;9.50;99.90;;;;;;5031177;28;20537;-68
2022/05/15 05:25:22;;;;;;;12.23;10.70;;;9.60;99.90;;;;;;5033543;28;20511;-68
2022/05/15 05:28:11;;;;;;;12.17;10.27;;;9.70;99.90;;;;;;5032844;28;20542;-68
2022/05/15 05:30:59;;;;;;;12.30;10.97;;;9.70;99.90;;;;;;5037048;28;20451;-68
2022/05/15 05:33:47;;;;;;;13.13;10.40;;;9.80;99.90;;;;;;5037084;28;20475;-68
2022/05/15 05:36:37;;;;;;;14.10;12.27;;;9.80;99.90;;;;;;5033120;28;20534;-68
2022/05/15 05:39:29;;;;;;;15.03;11.67;;;9.80;99.90;;;;;;5031498;28;20978;-68
2022/05/15 05:42:17;;;;;;;14.60;13.10;;;9.90;99.90;;;;;;5030291;28;20482;-67
2022/05/15 05:45:07;;;;;;;15.97;12.87;;;10.00;99.90;;;;;;5026455;28;20481;-68
2022/05/15 05:47:57;;;;;;;14.60;11.93;;;10.10;99.90;;;;;;5028873;28;20940;-68
2022/05/15 05:50:45;;;;;;;15.03;12.17;;;10.10;99.90;;;;;;5026340;28;20458;-69
2022/05/15 05:53:34;;;;;;;17.63;12.23;;;10.20;99.90;;;;;;5029366;28;20479;-68
2022/05/15 05:56:23;;;;;;;17.20;11.67;;;10.30;99.90;;;;;;5028756;28;20462;-68
2022/05/15 05:59:11;;;;;;;20.83;9.90;;;10.30;99.90;;;;;;5029983;28;20590;-68
2022/05/15 06:01:59;;;;;;;14.77;10.73;;;10.40;99.90;;;;;;5026957;28;20959;-69
2022/05/15 06:04:47;;;;;;;17.23;10.20;;;10.50;99.90;;;;;;5026423;28;20466;-68
2022/05/15 06:07:37;;;;;;;14.77;10.00;;;10.50;99.90;;;;;;5018164;28;20493;-68
2022/05/15 06:10:26;;;;;;;12.50;9.87;;;10.60;99.90;;;;;;5025906;28;20549;-69
2022/05/15 06:13:15;;;;;;;15.97;9.57;;;10.60;99.90;;;;;;5019591;28;20480;-68
2022/05/15 06:16:03;;;;;;;13.83;9.57;;;10.70;99.90;;;;;;5024036;28;20580;-69
2022/05/15 06:18:51;;;;;;;14.60;9.23;;;10.80;99.90;;;;;;5022445;28;20552;-69
2022/05/15 06:21:39;;;;;;;10.20;8.60;;;10.90;99.90;;;;;;5027925;28;21006;-68
2022/05/15 06:24:28;;;;;;;14.73;8.90;;;10.90;99.90;;;;;;5028133;28;20837;-69
2022/05/15 06:27:17;;;;;;;10.93;7.90;;;11.00;99.90;;;;;;5032263;28;20455;-68
2022/05/15 06:30:07;;;;;;;14.63;8.47;;;11.10;99.90;;;;;;5018596;28;21734;-69
2022/05/15 06:32:55;;;;;;;9.57;7.17;;;11.20;99.90;;;;;;5026924;28;20481;-68
2022/05/15 06:35:44;;;;;;;8.83;6.00;;;11.20;99.90;;;;;;5035984;28;20477;-68
2022/05/15 06:38:32;;;;;;;10.33;5.63;;;11.30;99.90;;;;;;5029199;28;20502;-68
2022/05/15 06:41:20;;;;;;;10.70;5.60;;;11.40;99.90;;;;;;5021274;28;20499;-69
2022/05/15 06:44:10;;;;;;;9.60;4.90;;;11.40;99.90;;;;;;5023046;28;20522;-68
2022/05/15 06:46:58;;;;;;;6.80;4.30;;;11.50;99.90;;;;;;5026281;28;20481;-71
2022/05/15 06:49:49;;;;;;;5.33;3.20;;;11.60;99.90;;;;;;5020271;28;21021;-68
2022/05/15 06:52:38;;;;;;;3.77;3.00;;;11.70;99.90;;;;;;5027042;28;20475;-68
2022/05/15 06:55:26;;;;;;;4.50;2.93;;;11.80;99.90;;;;;;5037667;28;20501;-68
2022/05/15 06:58:13;;;;;;;6.47;3.13;;;11.80;99.90;;;;;;5036551;28;20538;-68
2022/05/15 07:01:03;;;;;;;4.73;3.03;;;11.90;99.90;;;;;;5030729;28;20482;-68
2022/05/15 07:03:51;;;;;;;4.53;2.73;;;12.00;99.90;;;;;;5032210;28;20839;-68
2022/05/15 07:06:40;;;;;;;2.23;2.03;;;12.10;99.90;;;;;;5030562;28;21065;-68
2022/05/15 07:09:29;;;;;;;2.70;1.77;;;12.20;99.90;;;;;;5026909;28;21148;-68
2022/05/15 07:12:18;;;;;;;2.53;1.63;;;12.30;99.90;;;;;;5035287;28;20466;-67
2022/05/15 07:15:07;;;;;;;3.40;1.93;;;12.40;99.90;;;;;;5031289;28;20482;-68
2022/05/15 07:17:57;;;;;;;2.10;1.97;;;12.40;99.90;;;;;;5030122;28;20545;-68
2022/05/15 07:20:45;;;;;;;3.20;2.30;;;12.50;99.90;;;;;;5029145;28;20945;-68
2022/05/15 07:23:33;;;;;;;2.13;1.83;;;12.60;99.90;;;;;;5035387;28;20573;-68
2022/05/15 07:26:22;;;;;;;2.57;1.83;;;12.70;99.90;;;;;;5021539;28;20483;-67
2022/05/15 07:29:10;;;;;;;1.87;1.67;;;12.70;99.90;;;;;;5033180;28;20546;-68
2022/05/15 07:31:58;;;;;;;2.80;1.80;;;12.80;99.90;;;;;;5026693;28;20475;-68
2022/05/15 07:34:47;;;;;;;2.73;1.80;;;12.90;99.90;;;;;;5026408;28;20500;-69
2022/05/15 07:37:36;;;;;;;2.97;1.87;;;13.00;99.90;;;;;;5028503;28;20447;-68
2022/05/15 07:40:24;;;;;;;3.70;2.17;;;13.10;99.90;;;;;;5027651;28;20617;-68
2022/05/15 07:43:13;;;;;;;3.10;2.13;;;13.10;99.90;;;;;;5020521;28;20597;-68
2022/05/15 07:46:01;;;;;;;3.47;1.80;;;13.20;99.90;;;;;;5031643;28;20925;-68
2022/05/15 07:48:49;;;;;;;2.43;1.70;;;13.30;99.90;;;;;;5031970;28;20546;-67
2022/05/15 07:51:44;;;;;;;2.93;2.10;;;13.40;99.90;;;;;;5024413;28;20965;-67
2022/05/15 07:54:33;;;;;;;2.30;1.60;;;13.40;99.90;;;;;;5029294;28;20547;-67
2022/05/15 07:57:21;;;;;;;1.80;1.20;;;13.50;99.90;;;;;;5035762;28;20455;-67
2022/05/15 08:00:13;;;;;;;2.40;1.63;;;13.70;99.90;;;;;;5030637;28;20454;-69
2022/05/15 08:03:07;;;;;;;1.97;1.77;;;13.80;99.90;;;;;;5025111;28;20498;-67
2022/05/15 08:09:09;;;;;;;1.77;1.67;;;14.00;99.90;;;;;;5029918;28;20864;-67
2022/05/15 08:11:57;;;;;;;2.30;1.43;;;14.10;99.90;;;;;;5034911;28;20454;-67
2022/05/15 08:14:45;;;;;;;3.37;1.40;;;14.10;99.90;;;;;;5031683;28;20808;-67
2022/05/15 08:17:33;;;;;;;1.97;1.30;;;14.20;99.90;;;;;;5034780;28;20506;-68
2022/05/15 08:23:37;;;;;;;4.70;1.83;;;14.40;99.90;;;;;;5034276;28;20481;-68
2022/05/15 08:26:28;;;;;;;1.77;1.47;;;14.50;99.90;;;;;;5032804;28;20523;-68
2022/05/15 08:29:18;;;;;;;3.57;1.70;;;14.60;99.90;;;;;;5032507;28;21031;-67
2022/05/15 08:32:08;;;;;;;2.70;1.50;;;14.70;99.90;;;;;;5032783;28;20472;-68
2022/05/15 08:34:56;;;;;;;2.50;1.90;;;14.70;99.90;;;;;;5032993;28;20868;-69
2022/05/15 08:37:44;;;;;;;1.63;1.53;;;14.80;99.90;;;;;;5020313;28;20502;-67
2022/05/15 08:40:42;;;;;;;1.63;1.40;;;14.80;99.90;;;;;;5027739;28;20463;-67
2022/05/15 08:43:42;;;;;;;2.50;1.60;;;14.90;99.90;;;;;;5028519;28;20560;-69
2022/05/15 08:46:35;;;;;;;2.33;1.50;;;15.00;99.90;;;;;;5023031;28;20498;-68
2022/05/15 08:49:30;;;;;;;2.80;1.80;;;15.10;99.90;;;;;;5035511;28;20457;-69
2022/05/15 08:52:23;;;;;;;2.70;1.40;;;15.20;99.90;;;;;;5028618;28;20481;-69
2022/05/15 08:55:16;;;;;;;1.50;1.40;;;15.20;99.90;;;;;;5030606;28;20503;-69
2022/05/15 08:58:06;;;;;;;1.50;1.40;;;15.20;99.90;;;;;;5033042;28;20495;-69
2022/05/15 09:00:57;;;;;;;2.33;1.40;;;15.30;99.90;;;;;;5034326;28;20533;-69
2022/05/15 09:03:45;;;;;;;2.60;1.40;;;15.30;99.90;;;;;;5030623;28;20486;-68
2022/05/15 09:06:40;;;;;;;1.20;1.00;;;15.40;99.90;;;;;;5030087;28;20565;-68
2022/05/15 09:09:36;;;;;;;1.87;1.30;;;15.40;99.90;;;;;;5029032;28;20866;-69
2022/05/15 09:12:25;;;;;;;3.97;1.20;;;15.40;99.90;;;;;;5028666;28;20470;-68
2022/05/15 09:15:19;;;;;;;2.80;1.57;;;15.50;99.90;;;;;;5027369;28;20480;-68
2022/05/15 09:18:21;;;;;;;1.17;1.03;;;15.60;99.90;;;;;;5022157;28;20455;-68
2022/05/15 09:21:12;;;;;;;1.27;1.17;;;15.70;99.90;;;;;;5028574;28;20880;-68
2022/05/15 09:24:08;;;;;;;2.10;1.37;;;15.70;99.90;;;;;;5015211;28;22108;-69
2022/05/15 09:27:11;;;;;;;2.40;1.50;;;15.80;99.90;;;;;;5018413;28;20597;-67
2022/05/15 09:30:02;;;;;;;1.37;1.20;;;15.90;99.90;;;;;;5022556;28;21037;-68
2022/05/15 09:32:56;;;;;;;1.37;1.27;;;16.00;99.90;;;;;;5019265;28;20525;-68
2022/05/15 09:35:46;;;;;;;1.13;1.03;;;16.10;99.90;;;;;;5017171;28;20482;-68
2022/05/15 09:38:35;;;;;;;1.63;1.30;;;16.10;99.90;;;;;;5029328;28;20462;-68
2022/05/15 09:44:37;;;;;;;2.00;1.50;;;16.40;99.90;;;;;;5028585;28;20496;-67
2022/05/15 09:47:32;;;;;;;1.47;1.33;;;16.50;99.90;;;;;;5025902;28;20466;-68
2022/05/15 09:50:40;;;;;;;1.80;1.43;;;16.50;99.90;;;;;;5034083;28;20534;-68
2022/05/15 09:53:43;;;;;;;2.30;1.20;;;16.70;99.90;;;;;;5025668;28;20954;-68
2022/05/15 09:56:34;;;;;;;1.70;1.27;;;16.80;99.90;;;;;;5035070;28;20486;-68
2022/05/15 09:59:27;;;;;;;1.33;1.20;;;16.80;99.90;;;;;;5030732;28;20464;-68
2022/05/15 10:02:21;;;;;;;1.10;1.00;;;17.00;99.90;;;;;;5031032;28;20927;-68
2022/05/15 10:05:17;;;;;;;1.17;1.07;;;17.00;99.90;;;;;;5029876;28;20558;-71
2022/05/15 10:08:10;;;;;;;1.33;1.20;;;17.00;99.90;;;;;;5028779;28;20447;-68
2022/05/15 10:11:03;;;;;;;2.07;1.30;;;17.00;99.90;;;;;;5028968;28;20512;-68
2022/05/15 10:13:55;;;;;;;1.37;1.27;;;17.00;99.90;;;;;;5030806;28;20476;-68
2022/05/15 10:16:50;;;;;;;1.83;1.20;;;17.00;99.90;;;;;;5029862;28;21896;-68
2022/05/15 10:19:43;;;;;;;1.97;1.33;;;17.10;99.90;;;;;;5029481;28;20722;-69
2022/05/15 10:22:37;;;;;;;1.33;1.20;;;17.20;99.90;;;;;;5030850;28;20596;-69
2022/05/15 10:25:46;;;;;;;1.60;1.27;;;17.20;99.90;;;;;;5033005;28;21017;-69
2022/05/15 10:28:44;;;;;;;1.13;1.03;;;17.30;99.90;;;;;;5037211;28;20465;-69
2022/05/15 10:31:38;;;;;;;1.53;1.23;;;17.30;99.90;;;;;;5033741;28;20463;-69
2022/05/15 10:34:29;;;;;;;2.00;1.20;;;17.40;99.90;;;;;;5032477;28;20887;-69
2022/05/15 10:37:41;;;;;;;1.20;1.10;;;17.40;99.90;;;;;;5035147;28;20479;-69
2022/05/15 10:40:37;;;;;;;1.63;1.27;;;17.50;99.90;;;;;;5030906;28;20665;-70
2022/05/15 10:43:43;;;;;;;1.13;1.03;;;17.60;99.90;;;;;;5035271;28;20479;-69
2022/05/15 10:46:44;;;;;;;1.43;1.23;;;17.60;99.90;;;;;;5036315;28;20487;-69
2022/05/15 10:49:46;;;;;;;1.40;1.30;;;17.60;99.90;;;;;;5032081;28;20950;-69
2022/05/15 10:52:45;;;;;;;1.73;1.30;;;17.70;99.90;;;;;;5022181;28;20467;-69
2022/05/15 10:58:54;;;;;;;1.90;1.20;;;18.00;99.90;;;;;;5038990;28;20553;-69
2022/05/15 11:01:51;;;;;;;1.23;1.10;;;18.20;99.90;;;;;;5032808;28;20467;-69
2022/05/15 11:04:48;;;;;;;2.27;1.50;;;18.30;99.90;;;;;;5033726;28;20483;-69
2022/05/15 11:07:42;;;;;;;1.33;1.23;;;18.40;99.90;;;;;;5023532;28;20459;-69
2022/05/15 11:10:36;;;;;;;1.33;1.23;;;18.60;99.90;;;;;;5036717;28;20525;-69
2022/05/15 11:13:30;;;;;;;2.80;1.10;;;18.70;99.90;;;;;;5015540;28;20470;-69
2022/05/15 11:16:28;;;;;;;1.50;1.40;;;18.80;99.90;;;;;;5032848;28;20577;-69
2022/05/15 11:19:29;;;;;;;1.87;1.23;;;18.90;99.90;;;;;;5037682;28;21314;-69
2022/05/15 11:22:26;;;;;;;1.40;1.30;;;19.00;99.90;;;;;;5033673;28;20585;-69
2022/05/15 11:25:20;;;;;;;1.13;1.03;;;19.10;99.90;;;;;;5036019;28;20482;-69
2022/05/15 11:28:14;;;;;;;2.00;1.80;;;19.10;99.90;;;;;;5026389;28;20456;-69
2022/05/15 11:31:09;;;;;;;4.50;2.80;;;19.20;99.90;;;;;;5028990;28;20593;-69
2022/05/15 11:34:02;;;;;;;3.20;2.20;;;19.30;99.90;;;;;;5033888;28;20466;-69
2022/05/15 11:36:50;;;;;;;1.60;1.50;;;19.40;99.90;;;;;;5032191;28;20475;-69
2022/05/15 11:39:58;;;;;;;4.30;3.00;;;19.50;99.90;;;;;;5035649;28;20452;-69
2022/05/15 11:42:46;;;;;;;2.03;1.40;;;19.60;99.90;;;;;;5036198;28;20467;-70
2022/05/15 11:45:38;;;;;;;1.87;1.40;;;19.70;99.90;;;;;;5037186;28;20518;-69
2022/05/15 11:48:32;;;;;;;6.63;5.40;;;19.80;99.90;;;;;;5035519;28;20460;-69
2022/05/15 11:51:31;;;;;;;5.47;4.97;;;19.90;99.90;;;;;;5035231;28;20459;-69
2022/05/15 11:54:30;;;;;;;4.27;3.97;;;20.00;99.90;;;;;;5029755;28;20499;-69
2022/05/15 11:57:40;;;;;;;1.80;1.70;;;20.10;99.90;;;;;;5029898;28;20581;-69
2022/05/15 12:00:33;;;;;;;13.23;12.13;;;20.20;99.90;;;;;;5026929;28;20614;-69
2022/05/15 12:03:44;;;;;;;6.33;5.73;;;20.30;99.90;;;;;;5019850;28;20474;-69
2022/05/15 12:06:47;;;;;;;10.67;7.20;;;20.40;99.90;;;;;;5029834;28;20916;-69
2022/05/15 12:09:52;;;;;;;8.13;3.70;;;20.40;99.90;;;;;;5036132;28;20550;-69
2022/05/15 12:13:01;;;;;;;3.77;3.00;;;20.60;99.90;;;;;;5028320;28;20610;-70
2022/05/15 12:16:09;;;;;;;5.80;5.30;;;20.70;99.90;;;;;;5034555;28;20470;-69
2022/05/15 12:19:03;;;;;;;2.23;2.03;;;20.90;99.90;;;;;;5027924;28;20510;-70
2022/05/15 12:21:54;;;;;;;1.60;1.50;;;21.00;99.90;;;;;;5031247;28;20460;-70
2022/05/15 12:24:47;;;;;;;2.30;1.83;;;21.00;99.90;;;;;;5033993;28;20912;-70
2022/05/15 12:27:51;;;;;;;8.00;7.40;;;21.10;99.90;;;;;;5039508;28;20538;-69
2022/05/15 12:30:39;;;;;;;1.83;1.40;;;21.30;99.90;;;;;;5034383;28;20516;-69
2022/05/15 12:33:30;;;;;;;1.87;1.50;;;21.50;99.90;;;;;;5032553;28;20483;-69
2022/05/15 12:36:27;;;;;;;1.60;1.50;;;21.60;99.90;;;;;;5035374;28;20467;-69
2022/05/15 12:39:23;;;;;;;1.93;1.40;;;21.70;99.90;;;;;;5031912;28;20934;-69
2022/05/15 12:42:17;;;;;;;2.60;1.70;;;21.80;99.90;;;;;;5032558;28;20627;-69
2022/05/15 12:45:10;;;;;;;1.73;1.30;;;21.90;99.90;;;;;;5025690;28;20482;-69
2022/05/15 12:48:00;;;;;;;1.60;1.50;;;22.00;99.90;;;;;;5023246;28;20467;-69
2022/05/15 12:50:51;;;;;;;3.10;2.90;;;22.10;99.90;;;;;;5034585;28;20455;-69
2022/05/15 12:53:44;;;;;;;3.33;1.40;;;22.20;99.90;;;;;;5029171;28;20514;-70
2022/05/15 12:56:35;;;;;;;2.80;1.50;;;22.20;99.90;;;;;;5037141;28;20486;-69
2022/05/15 12:59:26;;;;;;;3.10;1.50;;;22.40;99.90;;;;;;5028435;28;20512;-69
2022/05/15 13:02:23;;;;;;;1.30;1.20;;;22.50;99.90;;;;;;5025060;28;20570;-70
2022/05/15 13:05:21;;;;;;;1.60;1.30;;;22.70;99.90;;;;;;5026865;28;20482;-69
2022/05/15 13:08:09;;;;;;;3.07;1.37;;;22.70;99.90;;;;;;5033136;28;20456;-69
2022/05/15 13:11:03;;;;;;;1.87;1.77;;;22.90;99.90;;;;;;5030047;28;20550;-70
2022/05/15 13:13:54;;;;;;;1.77;1.67;;;23.00;99.90;;;;;;5019553;28;20504;-72
2022/05/15 13:16:47;;;;;;;2.20;1.50;;;23.10;99.90;;;;;;5012014;28;20519;-70
2022/05/15 13:19:42;;;;;;;1.90;1.57;;;23.20;99.90;;;;;;5029786;28;20510;-70
2022/05/15 13:22:32;;;;;;;3.60;1.70;;;23.30;99.90;;;;;;5016237;28;21317;-70
2022/05/15 13:25:26;;;;;;;1.77;1.47;;;23.40;99.90;;;;;;5014533;28;20478;-70
2022/05/15 13:28:16;;;;;;;1.70;1.40;;;23.50;99.90;;;;;;5031738;28;20917;-70
2022/05/15 13:31:04;;;;;;;2.37;1.83;;;23.60;99.90;;;;;;5019436;28;20656;-71
2022/05/15 13:33:54;;;;;;;1.90;1.67;;;23.70;99.90;;;;;;5030069;28;20472;-70
2022/05/15 13:36:54;;;;;;;1.57;1.47;;;23.80;99.90;;;;;;5019433;28;20494;-70
2022/05/15 13:46:00;;;;;;;1.50;1.40;;;24.30;98.20;;;;;;5031204;28;20576;-70
2022/05/15 13:48:54;;;;;;;1.90;1.67;;;24.40;98.30;;;;;;5030344;28;21030;-71
2022/05/15 13:51:51;;;;;;;1.70;1.60;;;24.50;99.00;;;;;;5029686;28;20816;-72
2022/05/15 13:54:44;;;;;;;1.90;1.63;;;24.60;99.10;;;;;;5035789;28;20546;-72
2022/05/15 13:57:32;;;;;;;1.53;1.43;;;24.70;97.30;;;;;;5021378;28;20538;-71
2022/05/15 14:00:26;;;;;;;2.73;1.57;;;24.60;95.80;;;;;;5036121;28;20554;-73
2022/05/15 14:03:29;;;;;;;1.63;1.53;;;24.70;97.20;;;;;;5028746;28;20494;-72
2022/05/15 14:06:29;;;;;;;1.60;1.50;;;24.80;95.20;;;;;;5030428;28;20493;-72
2022/05/15 14:09:18;;;;;;;1.57;1.37;;;24.90;96.60;;;;;;5031661;28;20489;-72
2022/05/15 14:12:09;;;;;;;1.50;1.40;;;24.90;94.50;;;;;;5030665;28;20558;-73
2022/05/15 14:15:04;;;;;;;2.33;1.70;;;25.10;93.00;;;;;;5026626;28;20972;-71
2022/05/15 14:17:54;;;;;;;1.70;1.60;;;25.10;91.70;;;;;;5032544;28;20455;-72
2022/05/15 14:20:46;;;;;;;3.47;1.63;;;25.10;92.80;;;;;;5022536;28;20495;-71
2022/05/15 14:23:35;;;;;;;1.40;1.30;;;25.80;91.70;;;;;;5031765;28;20490;-71
2022/05/15 14:26:24;;;;;;;1.70;1.60;;;25.90;92.20;;;;;;5033431;28;20478;-72
2022/05/15 14:29:13;;;;;;;2.50;1.50;;;26.80;89.30;;;;;;5036346;28;20546;-72
2022/05/15 14:32:02;;;;;;;2.63;1.67;;;27.60;88.10;;;;;;5031194;28;20558;-72
2022/05/15 14:34:51;;;;;;;2.67;1.60;;;28.10;85.10;;;;;;5032700;28;20438;-70
2022/05/15 14:37:41;;;;;;;1.87;1.40;;;28.20;86.00;;;;;;5031345;28;20521;-70
2022/05/15 14:40:29;;;;;;;1.50;1.40;;;28.00;85.50;;;;;;5027837;28;20524;-71
2022/05/15 14:43:18;;;;;;;2.13;1.70;;;27.90;83.60;;;;;;5032059;28;20516;-71
2022/05/15 14:46:09;;;;;;;1.50;1.40;;;27.50;82.30;;;;;;5036415;28;20541;-71
2022/05/15 14:48:58;;;;;;;1.73;1.43;;;27.40;82.90;;;;;;5024252;28;20554;-71
2022/05/15 14:51:46;;;;;;;2.13;1.30;;;27.00;81.00;;;;;;5021195;28;20450;-70
2022/05/15 14:54:37;;;;;;;1.40;1.30;;;26.80;82.00;;;;;;5024796;28;20526;-71
2022/05/15 14:57:25;;;;;;;1.53;1.40;;;26.80;82.30;;;;;;5036121;28;20565;-71
2022/05/15 15:00:14;;;;;;;1.43;1.30;;;26.50;83.90;;;;;;5020543;28;20514;-70
2022/05/15 15:03:03;;;;;;;2.63;1.37;;;26.70;85.30;;;;;;5032089;28;20607;-71
2022/05/15 15:05:52;;;;;;;2.83;1.77;;;26.70;82.50;;;;;;5021869;28;20488;-71
2022/05/15 15:08:41;;;;;;;1.67;1.57;;;26.70;85.90;;;;;;5029175;28;20962;-71